Time;durP1;ratioP1;P1;durP2;ratioP2;P2;SDS_P1;SDS_P2;PMS_P1;PMS_P2;Temp;Humidity;BMP_temperature;BMP_pressure;BME280_temperature;BME280_humidity;BME280_pressure;Samples;Min_cycle;Max_cycle;Signal;HPM_P1;HPM_P2
2022/08/17 00:04:33;;;;;;;14.75;10.13;;;;;;;22.73;71.97;99979.83;3542313;82;34871;-83
2022/08/17 00:09:34;;;;;;;16.12;9.85;;;;;;;22.71;72.12;99977.33;3519423;82;98836;-83
2022/08/17 00:14:36;;;;;;;14.80;10.05;;;;;;;22.68;72.10;99979.69;3542041;81;33708;-83
2022/08/17 00:19:37;;;;;;;14.38;9.75;;;;;;;22.61;72.20;99986.39;3536833;81;98697;-82
2022/08/17 00:24:38;;;;;;;16.45;10.48;;;;;;;22.58;72.54;99983.75;3535796;81;34197;-85
2022/08/17 00:29:39;;;;;;;14.38;10.58;;;;;;;22.54;72.61;99983.91;3540686;81;98915;-83
2022/08/17 00:34:40;;;;;;;16.00;11.38;;;;;;;22.51;72.88;99984.08;3526081;81;42569;-83
2022/08/17 00:39:41;;;;;;;16.05;11.95;;;;;;;22.43;73.12;99978.58;3529717;81;98914;-82
2022/08/17 00:44:42;;;;;;;16.67;11.50;;;;;;;22.43;73.14;99995.41;3533284;82;32248;-82
2022/08/17 00:49:43;;;;;;;16.50;11.18;;;;;;;22.38;73.47;99982.00;3556072;82;98788;-83
2022/08/17 00:54:50;;;;;;;17.45;11.43;;;;;;;22.37;73.71;99986.85;3560051;82;32570;-82
2022/08/17 00:59:56;;;;;;;16.93;12.00;;;;;;;22.38;74.05;99978.59;3541832;81;98523;-82
2022/08/17 01:04:57;;;;;;;18.45;11.00;;;;;;;22.36;74.07;99978.30;3534837;82;33240;-82
2022/08/17 01:10:03;;;;;;;17.02;11.78;;;;;;;22.34;74.21;99970.19;3551228;82;98467;-82
2022/08/17 01:15:05;;;;;;;16.75;11.40;;;;;;;22.26;73.96;99968.92;3551291;82;27382;-83
2022/08/17 01:20:07;;;;;;;15.18;11.70;;;;;;;22.23;74.21;99972.04;3545577;82;98562;-83
2022/08/17 01:25:11;;;;;;;15.90;12.30;;;;;;;22.17;74.46;99970.34;3539782;82;32503;-83
2022/08/17 01:30:12;;;;;;;16.00;11.57;;;;;;;22.12;74.53;99976.56;3549466;82;98541;-82
2022/08/17 01:35:14;;;;;;;18.05;12.18;;;;;;;22.08;74.74;99974.53;3543261;82;32556;-82
2022/08/17 01:40:37;;;;;;;18.30;12.15;;;;;;;22.02;74.98;99977.16;3514890;82;98789;-83
2022/08/17 01:45:44;;;;;;;16.20;11.48;;;;;;;21.98;75.08;99977.95;3547137;81;32657;-83
2022/08/17 01:50:47;;;;;;;15.50;11.68;;;;;;;21.96;75.09;99975.45;3535260;81;98797;-82
2022/08/17 01:55:53;;;;;;;19.80;11.93;;;;;;;21.89;75.29;99967.33;3549678;82;33096;-83
2022/08/17 02:00:55;;;;;;;16.82;11.10;;;;;;;21.83;75.37;99965.77;3539098;82;98603;-83
2022/08/17 02:05:57;;;;;;;16.52;11.30;;;;;;;21.80;75.52;99970.13;3539729;81;27380;-82
2022/08/17 02:10:58;;;;;;;15.75;11.80;;;;;;;21.75;75.64;99965.90;3538142;82;98526;-83
2022/08/17 02:16:00;;;;;;;15.28;11.25;;;;;;;21.70;75.70;99969.30;3545209;81;33712;-83
2022/08/17 02:21:01;;;;;;;15.38;11.85;;;;;;;21.65;75.71;99968.52;3531332;82;98718;-82
2022/08/17 02:26:03;;;;;;;19.62;12.58;;;;;;;21.57;75.97;99970.03;3549539;81;33636;-83
2022/08/17 02:31:11;;;;;;;17.92;12.18;;;;;;;21.54;76.06;99969.57;3525329;82;98821;-84
2022/08/17 02:36:13;;;;;;;17.92;12.43;;;;;;;21.48;76.24;99958.03;3542724;82;32532;-83
2022/08/17 02:41:13;;;;;;;16.10;12.60;;;;;;;21.44;76.41;99954.59;3532089;81;98851;-83
2022/08/17 02:46:15;;;;;;;17.40;12.05;;;;;;;21.42;76.61;99959.88;3530203;82;32415;-83
2022/08/17 02:51:16;;;;;;;22.22;13.58;;;;;;;21.41;76.81;99962.52;3536148;82;98444;-83
2022/08/17 02:56:17;;;;;;;20.45;14.05;;;;;;;21.37;76.84;99957.05;3530870;83;32461;-83
2022/08/17 03:01:19;;;;;;;19.17;12.33;;;;;;;21.32;76.89;99963.87;3571187;81;98865;-83
2022/08/17 03:06:20;;;;;;;15.00;11.78;;;;;;;21.29;77.03;99959.98;3559710;81;32500;-83
2022/08/17 03:11:21;;;;;;;16.35;12.25;;;;;;;21.26;77.08;99972.08;3531540;82;98461;-84
2022/08/17 03:16:22;;;;;;;17.40;11.65;;;;;;;21.25;77.21;99983.13;3578066;82;32379;-84
2022/08/17 03:21:23;;;;;;;19.32;13.55;;;;;;;21.22;77.23;99981.27;3550906;81;98458;-84
2022/08/17 03:26:23;;;;;;;17.65;12.73;;;;;;;21.16;77.41;99978.11;3587785;81;31781;-83
2022/08/17 03:31:25;;;;;;;17.57;12.75;;;;;;;21.13;77.48;99977.62;3524340;83;98747;-83
2022/08/17 03:36:26;;;;;;;19.80;13.40;;;;;;;21.05;77.66;99976.34;3540004;81;31712;-84
2022/08/17 03:41:27;;;;;;;18.40;12.93;;;;;;;21.00;77.87;99983.94;3500786;81;98290;-83
2022/08/17 03:57:09;;;;;;;18.73;14.35;;;;;;;20.93;78.15;99994.00;3531071;83;99443;-83
2022/08/17 04:02:18;;;;;;;18.98;13.93;;;;;;;20.87;78.25;99996.56;3522398;83;26314;-83
2022/08/17 04:07:23;;;;;;;20.32;13.45;;;;;;;20.83;78.64;100001.54;3528618;82;98360;-84
2022/08/17 04:12:29;;;;;;;17.45;12.80;;;;;;;20.81;78.76;100006.02;3537853;82;25394;-83
2022/08/17 04:17:29;;;;;;;19.77;13.80;;;;;;;20.81;78.89;100008.19;3532756;82;99187;-83
2022/08/17 04:22:30;;;;;;;20.23;13.57;;;;;;;20.78;78.77;100009.11;3538988;81;25832;-83
2022/08/17 04:27:31;;;;;;;18.05;13.72;;;;;;;20.77;79.12;100013.13;3548299;82;99205;-83
2022/08/17 04:32:32;;;;;;;17.77;12.83;;;;;;;20.77;79.27;100024.31;3543803;82;25894;-83
2022/08/17 04:37:33;;;;;;;17.47;13.63;;;;;;;20.81;79.43;100030.56;3523373;82;98829;-83
2022/08/17 04:42:34;;;;;;;18.83;13.67;;;;;;;20.83;79.56;100033.70;3531698;82;54191;-83
2022/08/17 04:47:36;;;;;;;18.90;13.83;;;;;;;20.84;79.62;100026.87;3534575;82;99031;-84
2022/08/17 04:52:45;;;;;;;18.30;13.43;;;;;;;20.84;79.77;100029.66;3554421;82;25874;-83
2022/08/17 04:57:46;;;;;;;17.90;13.28;;;;;;;20.87;79.85;100027.97;3510329;83;98830;-83
2022/08/17 05:02:51;;;;;;;22.97;15.00;;;;;;;20.89;80.01;100032.52;3552834;82;26062;-83
2022/08/17 05:07:54;;;;;;;18.75;13.88;;;;;;;20.92;80.27;100040.77;3527975;82;99336;-83
2022/08/17 05:13:03;;;;;;;19.23;13.38;;;;;;;20.97;80.26;100051.38;3549746;82;25948;-84
2022/08/17 05:18:04;;;;;;;17.82;12.85;;;;;;;21.02;80.44;100043.00;3530927;82;98859;-83
2022/08/17 05:23:09;;;;;;;20.12;14.05;;;;;;;21.08;80.51;100044.77;3527670;82;26290;-83
2022/08/17 05:28:10;;;;;;;18.80;13.15;;;;;;;21.13;80.54;100044.78;3540875;82;99119;-83
2022/08/17 05:33:16;;;;;;;17.07;11.87;;;;;;;21.20;80.73;100047.33;3532931;81;26760;-83
2022/08/17 05:38:21;;;;;;;20.20;14.53;;;;;;;21.28;80.71;100052.80;3537294;82;99016;-83
2022/08/17 05:43:29;;;;;;;22.50;15.25;;;;;;;21.45;82.52;100053.53;3534795;82;26556;-83
2022/08/17 05:48:35;;;;;;;19.37;13.32;;;;;;;21.75;83.60;100058.34;3526945;82;99205;-82
2022/08/17 05:53:40;;;;;;;;;;;;;;;22.19;84.55;100051.30;3551571;82;26469;-83
2022/08/17 05:59:04;;;;;;;16.93;12.20;;;;;;;22.77;85.26;100045.62;3553448;81;84990;-83
2022/08/17 06:04:29;;;;;;;16.67;12.93;;;;;;;23.36;83.54;100051.30;3538385;81;25994;-83
2022/08/17 06:10:09;;;;;;;22.73;15.25;;;;;;;23.99;82.30;100051.08;3525839;82;99132;-83
2022/08/17 06:15:22;;;;;;;17.55;13.03;;;;;;;24.50;80.54;100046.66;3546945;81;26148;-84
2022/08/17 06:20:22;;;;;;;17.98;12.58;;;;;;;24.98;79.22;100056.59;3544633;81;98799;-83
2022/08/17 06:25:32;;;;;;;20.52;13.22;;;;;;;25.19;77.63;100063.89;3535746;82;25819;-82
2022/08/17 06:30:38;;;;;;;23.67;14.68;;;;;;;25.41;76.64;100065.11;3530529;82;99116;-85
2022/08/17 06:35:54;;;;;;;16.05;12.25;;;;;;;25.57;75.52;100075.88;3540055;82;25945;-82
2022/08/17 06:41:06;;;;;;;15.90;12.20;;;;;;;25.69;75.37;100069.16;3543691;82;99003;-83
2022/08/17 06:46:32;;;;;;;15.13;11.28;;;;;;;25.90;75.04;100075.63;3533183;82;26502;-84
2022/08/17 06:51:45;;;;;;;15.20;11.28;;;;;;;26.01;74.05;100071.58;3526522;82;25951;-84
2022/08/17 06:57:15;;;;;;;16.97;12.33;;;;;;;26.17;73.87;100066.82;3515083;82;98808;-83
2022/08/17 07:02:37;;;;;;;14.95;11.22;;;;;;;26.27;73.28;100079.53;3379477;82;26904;-85
2022/08/17 07:13:11;;;;;;;25.00;13.28;;;;;;;26.39;72.01;100085.46;3507363;82;26016;-83
2022/08/17 07:18:12;;;;;;;15.32;11.55;;;;;;;26.55;71.04;100089.95;3523769;82;99418;-81
2022/08/17 07:23:27;;;;;;;14.83;11.65;;;;;;;26.66;71.01;100088.68;3526960;82;70879;-82
2022/08/17 07:28:31;;;;;;;18.57;12.45;;;;;;;26.79;70.33;100086.89;3522179;82;99396;-82
2022/08/17 07:33:35;;;;;;;15.38;10.53;;;;;;;26.79;69.01;100087.67;3526577;82;25905;-83
2022/08/17 07:38:42;;;;;;;16.17;11.73;;;;;;;26.85;69.38;100097.61;3529237;82;99212;-82
2022/08/17 07:43:47;;;;;;;21.52;12.65;;;;;;;26.93;68.40;100099.53;3533308;81;26559;-84
2022/08/17 07:48:52;;;;;;;18.02;10.90;;;;;;;27.02;67.91;100096.53;3551428;81;99320;-83
2022/08/17 07:53:59;;;;;;;16.82;11.75;;;;;;;27.13;67.88;100100.12;3532435;81;26780;-82
2022/08/17 07:59:20;;;;;;;15.45;11.18;;;;;;;27.25;68.17;100096.93;3502136;79;57267;-86
2022/08/17 08:04:38;;;;;;;14.85;11.28;;;;;;;27.37;67.73;100104.27;3435500;83;26682;-85
2022/08/17 08:10:10;;;;;;;19.65;13.03;;;;;;;27.49;67.41;100097.44;3473475;83;98891;-83
2022/08/17 08:15:17;;;;;;;13.18;10.58;;;;;;;27.70;67.04;100100.95;3462554;83;92434;-83
2022/08/17 08:20:24;;;;;;;18.50;11.68;;;;;;;27.89;65.94;100086.61;3486161;83;99062;-84
2022/08/17 08:25:50;;;;;;;16.35;12.45;;;;;;;28.24;65.64;100092.13;3488926;83;29435;-83
2022/08/17 08:31:03;;;;;;;15.13;12.05;;;;;;;28.88;64.52;100102.08;3427247;83;2030754;-84
2022/08/17 08:36:36;;;;;;;14.98;10.68;;;;;;;29.66;63.16;100093.92;3480399;84;98265;-85
2022/08/17 08:41:57;;;;;;;13.78;10.90;;;;;;;30.49;61.57;100100.27;3487556;84;39765;-84
2022/08/17 08:47:23;;;;;;;15.25;11.43;;;;;;;31.23;59.22;100105.91;3449152;83;2618812;-84
2022/08/17 08:52:38;;;;;;;14.07;10.60;;;;;;;31.87;57.27;100093.82;3482803;83;25793;-87
2022/08/17 08:57:50;;;;;;;10.00;7.37;;;;;;;32.77;56.35;100096.77;3465613;83;99412;-86
2022/08/17 09:03:42;;;;;;;11.78;7.97;;;;;;;33.48;53.70;100097.06;3426878;85;44654;-88
2022/08/17 09:08:55;;;;;;;12.33;9.03;;;;;;;33.86;50.70;100094.26;3460646;85;98882;-88
2022/08/17 09:14:02;;;;;;;12.55;7.85;;;;;;;34.67;50.87;100091.17;3460771;85;29974;-89
2022/08/17 09:19:18;;;;;;;10.00;7.62;;;;;;;35.55;47.52;100093.52;3458433;83;98744;-91
2022/08/17 09:24:36;;;;;;;12.85;7.55;;;;;;;36.63;46.26;100093.27;3462990;85;26458;-89
2022/08/17 09:29:42;;;;;;;11.10;6.85;;;;;;;37.34;45.18;100088.14;3448688;85;99600;-90
2022/08/17 09:34:53;;;;;;;11.75;8.00;;;;;;;37.89;42.39;100089.98;3461377;85;25878;-88
2022/08/17 09:40:18;;;;;;;10.45;7.55;;;;;;;38.13;40.23;100088.66;3441457;85;98633;-88
2022/08/17 09:45:47;;;;;;;10.25;7.42;;;;;;;38.62;38.76;100081.79;3455907;85;26623;-89
2022/08/17 09:51:16;;;;;;;12.70;8.53;;;;;;;39.14;37.50;100076.50;3451004;85;98630;-91
2022/08/17 09:56:40;;;;;;;10.23;8.20;;;;;;;39.57;36.82;100061.00;3456224;85;39872;-88
2022/08/17 10:02:14;;;;;;;11.08;7.97;;;;;;;39.94;36.94;100068.59;3408420;85;2071884;-89
2022/08/17 10:07:26;;;;;;;9.75;7.10;;;;;;;40.57;36.53;100063.97;3391846;85;99430;-90
2022/08/17 10:12:50;;;;;;;10.57;7.30;;;;;;;41.07;35.34;100068.88;3450141;85;100215;-87
2022/08/17 10:18:28;;;;;;;9.90;6.75;;;;;;;41.04;33.57;100057.84;3448767;84;99305;-89
2022/08/17 10:29:06;;;;;;;9.25;6.85;;;;;;;41.95;31.26;100064.48;3217660;85;5375909;-90
2022/08/17 10:34:48;;;;;;;16.25;7.83;;;;;;;41.49;32.49;100059.31;3396933;85;4885915;-91
2022/08/17 10:40:26;;;;;;;;;;;;;;;;;;;;;
2022/08/17 10:46:03;;;;;;;10.13;6.97;;;;;;;41.19;30.83;100052.53;3382893;85;2076353;-91
2022/08/17 10:51:38;;;;;;;9.68;6.67;;;;;;;40.56;31.74;100061.01;3362603;85;4353841;-91
2022/08/17 10:56:48;;;;;;;10.15;7.70;;;;;;;40.51;32.29;100067.77;3418287;85;1760810;-89
2022/08/17 11:02:03;;;;;;;9.95;7.55;;;;;;;40.13;32.73;100071.72;3462931;84;31138;-89
2022/08/17 11:07:29;;;;;;;11.97;8.03;;;;;;;39.71;32.39;100065.13;3437572;85;98509;-91
2022/08/17 11:12:45;;;;;;;8.73;7.33;;;;;;;39.65;31.52;100058.81;3447032;85;26413;-91
2022/08/17 11:18:31;;;;;;;13.10;8.73;;;;;;;39.84;31.73;100065.52;3456691;85;98561;-93
2022/08/17 11:23:58;;;;;;;10.85;7.50;;;;;;;40.12;31.56;100052.87;3460621;84;42965;-89
2022/08/17 11:29:16;;;;;;;8.50;6.70;;;;;;;40.53;31.21;100064.29;3290551;88;98859;-88
2022/08/17 11:34:25;;;;;;;9.13;7.15;;;;;;;40.71;30.85;100062.28;3415286;85;29273;-90
2022/08/17 11:40:08;;;;;;;10.20;7.00;;;;;;;40.84;31.40;100060.47;3444015;84;98628;-89
2022/08/17 11:45:56;;;;;;;10.45;7.60;;;;;;;40.99;30.66;100048.76;3439287;85;49814;-90
2022/08/17 11:56:45;;;;;;;10.20;7.12;;;;;;;41.27;30.06;100035.83;3463078;84;50415;-90
2022/08/17 12:01:54;;;;;;;9.03;7.37;;;;;;;40.97;30.31;100034.84;3473629;84;25981;-91
2022/08/17 12:07:20;;;;;;;8.88;6.85;;;;;;;40.88;30.94;100042.05;3480649;84;98677;-94
2022/08/17 12:12:32;;;;;;;8.58;6.85;;;;;;;40.47;31.00;100039.27;3479378;83;53636;-89
2022/08/17 12:17:34;;;;;;;10.82;7.20;;;;;;;40.18;31.41;100038.99;3482714;84;98591;-91
2022/08/17 12:22:56;;;;;;;9.90;6.65;;;;;;;39.78;30.43;100034.04;3480452;83;26052;-92
2022/08/17 12:27:56;;;;;;;7.95;6.28;;;;;;;39.37;29.66;100027.53;3483231;84;98554;-87
2022/08/17 12:32:57;;;;;;;9.00;6.37;;;;;;;39.05;31.17;100025.30;3466756;84;2267678;-93
2022/08/17 12:38:00;;;;;;;9.93;6.57;;;;;;;39.08;31.33;100024.91;3456286;84;2470742;-93
2022/08/17 12:43:06;;;;;;;8.65;6.35;;;;;;;39.24;31.76;100023.48;3488100;84;26574;-90
2022/08/17 12:48:12;;;;;;;10.75;6.33;;;;;;;39.09;31.14;100035.08;3474487;84;98735;-89
2022/08/17 12:53:26;;;;;;;8.28;5.80;;;;;;;39.11;30.88;100024.42;3486406;84;25850;-92
2022/08/17 12:58:31;;;;;;;10.13;6.75;;;;;;;38.82;31.34;100028.28;3468453;84;99047;-90
2022/08/17 13:03:40;;;;;;;8.25;6.10;;;;;;;38.58;32.60;100026.75;3457613;84;25931;-90
2022/08/17 13:08:46;;;;;;;8.85;6.40;;;;;;;38.51;32.74;100026.12;3422506;85;98582;-89
2022/08/17 13:13:52;;;;;;;7.72;5.75;;;;;;;37.99;30.72;100012.59;3461335;85;26282;-88
2022/08/17 13:19:11;;;;;;;7.78;5.70;;;;;;;37.73;32.68;100010.09;3452811;84;98994;-86
2022/08/17 13:24:20;;;;;;;9.88;6.45;;;;;;;37.59;33.14;100008.77;3458271;85;26999;-89
2022/08/17 13:29:45;;;;;;;8.00;6.40;;;;;;;37.18;31.93;100010.50;3454852;84;98816;-90
2022/08/17 13:34:53;;;;;;;9.63;6.15;;;;;;;37.15;32.83;100009.54;3462078;84;93857;-88
2022/08/17 13:40:14;;;;;;;8.63;6.10;;;;;;;36.80;32.16;100003.22;3437163;85;98910;-86
2022/08/17 13:45:40;;;;;;;8.60;6.00;;;;;;;36.76;32.42;100002.03;3461223;85;31088;-86
2022/08/17 13:50:58;;;;;;;9.28;5.53;;;;;;;36.64;32.53;100000.19;3457288;85;98456;-88
2022/08/17 13:56:07;;;;;;;7.92;5.75;;;;;;;36.46;33.18;99994.04;3462990;85;26590;-87
2022/08/17 14:01:30;;;;;;;11.57;6.10;;;;;;;36.26;32.37;99987.75;3460717;84;98468;-87
2022/08/17 14:06:42;;;;;;;9.03;5.50;;;;;;;35.78;31.81;99992.84;3481396;84;98981;-89
2022/08/17 14:11:46;;;;;;;7.87;5.72;;;;;;;35.93;33.11;99990.09;3450653;84;32548;-89
2022/08/17 14:16:50;;;;;;;8.40;5.58;;;;;;;35.99;33.46;99982.77;3477494;84;98469;-87
2022/08/17 14:21:57;;;;;;;9.70;6.33;;;;;;;36.01;32.54;99987.28;3458463;84;36184;-87
2022/08/17 14:27:00;;;;;;;11.48;5.70;;;;;;;35.98;33.56;99992.70;3463738;84;98486;-88
2022/08/17 14:32:12;;;;;;;8.23;5.42;;;;;;;36.11;33.49;99983.33;3477381;84;35525;-88
2022/08/17 14:37:18;;;;;;;9.00;5.65;;;;;;;35.95;33.97;99985.25;3456334;84;98373;-90
2022/08/17 14:42:23;;;;;;;9.75;6.17;;;;;;;35.76;34.16;99982.62;3491702;84;26349;-88
2022/08/17 14:47:22;;;;;;;8.55;5.85;;;;;;;35.67;34.50;99987.39;3479570;83;98214;-88
2022/08/17 14:52:23;;;;;;;9.03;5.67;;;;;;;35.50;34.87;99992.01;3480632;83;37355;-88
2022/08/17 14:57:26;;;;;;;7.97;5.55;;;;;;;35.42;35.74;99994.05;3478126;84;99103;-90
2022/08/17 15:02:28;;;;;;;8.60;5.40;;;;;;;35.25;34.72;99987.30;3464833;84;144588;-88
2022/08/17 15:07:31;;;;;;;9.45;5.87;;;;;;;35.19;35.58;99986.64;3403281;85;2050346;-88
2022/08/17 15:12:32;;;;;;;8.25;5.45;;;;;;;34.93;34.66;99987.42;3428343;85;26072;-89
2022/08/17 15:17:35;;;;;;;9.70;6.05;;;;;;;34.89;34.65;99986.99;3414601;85;98383;-89
2022/08/17 15:22:38;;;;;;;9.03;5.53;;;;;;;34.56;33.94;99978.49;3422912;85;35411;-88
2022/08/17 15:27:40;;;;;;;11.05;6.50;;;;;;;34.57;34.75;99986.39;3420097;85;99702;-88
2022/08/17 15:32:42;;;;;;;9.45;6.30;;;;;;;34.49;34.17;99993.44;3431831;85;28426;-85
2022/08/17 15:37:43;;;;;;;9.68;6.40;;;;;;;34.23;33.96;99992.68;3413978;85;98495;-90
2022/08/17 15:42:44;;;;;;;10.48;6.45;;;;;;;34.25;34.46;99983.67;3424591;85;39326;-85
2022/08/17 15:47:45;;;;;;;9.08;6.35;;;;;;;34.29;35.38;99986.22;3431078;85;99011;-87
2022/08/17 15:52:50;;;;;;;9.90;6.10;;;;;;;34.22;35.75;99986.19;3440163;84;33070;-85
2022/08/17 15:57:53;;;;;;;11.63;6.25;;;;;;;34.27;36.72;99982.48;3431444;85;98342;-86
2022/08/17 16:02:58;;;;;;;9.28;6.03;;;;;;;34.22;37.25;99976.19;3429308;84;25989;-86
2022/08/17 16:08:00;;;;;;;9.85;6.12;;;;;;;34.00;36.65;99977.31;3451838;84;98454;-85
2022/08/17 16:13:09;;;;;;;10.10;5.65;;;;;;;33.80;37.09;99983.66;3434554;84;36209;-85
2022/08/17 16:18:11;;;;;;;9.88;6.47;;;;;;;33.64;36.74;99981.86;3420065;84;98945;-83
2022/08/17 16:23:16;;;;;;;8.73;5.97;;;;;;;33.41;36.19;99986.42;3413553;84;26615;-88
2022/08/17 16:28:17;;;;;;;18.48;6.90;;;;;;;33.30;36.82;99990.22;3437339;84;98403;-83
2022/08/17 16:33:19;;;;;;;9.55;6.40;;;;;;;33.07;36.35;99983.98;3424721;84;55034;-86
2022/08/17 16:38:20;;;;;;;8.98;6.10;;;;;;;32.92;36.57;99988.72;3420787;84;98821;-85
2022/08/17 16:43:23;;;;;;;10.40;7.15;;;;;;;32.76;37.42;99993.22;3432551;84;25876;-86
2022/08/17 16:48:24;;;;;;;10.15;5.85;;;;;;;32.57;37.72;99982.47;3427109;84;98699;-86
2022/08/17 16:53:25;;;;;;;10.28;6.22;;;;;;;32.49;37.71;99994.37;3423957;84;35709;-86
2022/08/17 16:58:26;;;;;;;8.35;6.10;;;;;;;32.39;38.48;100003.18;3424324;85;98783;-84
2022/08/17 17:03:30;;;;;;;9.25;6.40;;;;;;;32.31;39.06;100003.01;3376292;85;26464;-85
2022/08/17 17:08:49;;;;;;;11.05;6.10;;;;;;;32.16;38.79;100004.73;3428045;85;99002;-86
2022/08/17 17:14:00;;;;;;;14.65;6.17;;;;;;;32.01;39.38;99993.77;3456256;85;26043;-87
2022/08/17 17:19:22;;;;;;;10.98;7.17;;;;;;;31.87;40.01;100002.06;3441732;83;98461;-89
2022/08/17 17:24:40;;;;;;;9.25;5.78;;;;;;;31.78;41.07;100005.28;3386450;85;26883;-87
2022/08/17 17:29:59;;;;;;;9.43;6.53;;;;;;;31.66;41.23;100010.91;3477114;82;98893;-88
2022/08/17 17:35:05;;;;;;;9.35;6.45;;;;;;;31.54;41.55;100020.86;3479547;83;56247;-87
2022/08/17 17:40:23;;;;;;;9.33;6.55;;;;;;;31.39;42.02;100016.86;3508395;83;98342;-87
2022/08/17 17:45:33;;;;;;;11.18;6.65;;;;;;;31.28;42.61;100017.70;3488035;83;30688;-86
2022/08/17 17:50:44;;;;;;;12.18;6.67;;;;;;;31.15;43.42;100013.91;3485043;83;99337;-86
2022/08/17 17:56:22;;;;;;;11.97;6.95;;;;;;;31.05;43.76;100012.04;3495437;83;36904;-86
2022/08/17 18:01:50;;;;;;;11.43;7.33;;;;;;;30.90;43.83;100018.72;3506705;83;97815;-89
2022/08/17 18:07:27;;;;;;;11.73;7.87;;;;;;;30.76;44.37;100014.17;3522182;82;99145;-90
2022/08/17 18:12:39;;;;;;;10.80;7.87;;;;;;;30.64;44.63;100028.92;3472263;83;40727;-95
2022/08/17 18:18:02;;;;;;;10.18;7.35;;;;;;;30.48;44.68;100037.66;3460310;83;99089;-87
